Nearby METAR Reports

 

KMTN - Baltimore/Martin, Maryland, USA
Distance from station: SSE 8mi, 13km
Updated: Sun, 19-Apr-2015 3:50pm EDT
NOT Current
Mostly cloudy
Mostly cloudy
 Wind from ESE
Wind: ESE 16 mph , 26 km/h, Gust: 23 mph , 37 km/h
Temperature: 61°F , 16°C
Dew Point: 41°F , 5°C
Humidity: 48%
Barometer: 30.15 inHg , 1021 hPa
Clouds: Mostly cloudy
Visibility: 10 miles , 16 km
Cloud details: Few Clouds 4500 ft
Mostly cloudy 25000 ft
2015/04/19 19:50 KMTN 191950Z 11014G20KT 10SM FEW045 BKN250 16/05 A3015
KDMH - Baltimore/Dwntwn, Maryland, USA
Distance from station: SW 12mi, 19km
Updated: Sun, 19-Apr-2015 4:54pm EDT

 
Temperature: 59°F , 15°C
Dew Point: 37°F , 3°C
Humidity: 45%
Barometer: 30.11 inHg , 1019.6 hPa
2015/04/19 20:54 KDMH 192054Z AUTO 15/03 A3011 RMK AO1 SLP196 T01500033 58010
 
KBWI - Balto/Wash Intl, Maryland, USA
Distance from station: SSW 20mi, 33km
Updated: Sun, 19-Apr-2015 4:54pm EDT
Overcast
Overcast
 Wind from E
Wind: E 22 mph , 35 km/h, Gust: 26 mph , 43 km/h
Temperature: 57°F , 14°C
Dew Point: 39°F , 4°C
Humidity: 51%
Barometer: 30.10 inHg , 1019.3 hPa
Clouds: Overcast
Visibility: 10 miles , 16 km
Cloud details: Partly cloudy 4100 ft
Mostly cloudy 15000 ft
Overcast 19000 ft
2015/04/19 20:54 KBWI 192054Z 09019G23KT 10SM SCT041 BKN150 OVC190 14/04 A3010 RMK AO2 SLP192 T01440039 57008
KDMW - Carroll Cnty, Maryland, USA
Distance from station: WNW 30mi, 48km
Updated: Sun, 19-Apr-2015 5:10pm EDT
Clear
Clear
 Wind from ESE
Wind: ESE 13 mph , 20 km/h, Gust: 18 mph , 30 km/h
Temperature: 59°F , 15°C
Dew Point: 36°F , 2°C
Humidity: 42%
Barometer: 30.10 inHg , 1019.3 hPa
Clouds: Clear
Visibility: 10 miles , 16 km
2015/04/19 21:10 KDMW 192110Z AUTO 12011G16KT 10SM CLR 15/02 A3010 RMK AO2
 
KNAK - Annapolis/Naval, Maryland, USA
Distance from station: S 30mi, 48km
Updated: Sun, 19-Apr-2015 4:54pm EDT
Overcast
Overcast
 Wind from E
Wind: E 15 mph , 24 km/h
Temperature: 57°F , 14°C
Dew Point: 41°F , 5°C
Humidity: 55%
Barometer: 30.10 inHg , 1019.3 hPa
Clouds: Overcast
Visibility: 10 miles , 16 km
Cloud details: Overcast 3700 ft
2015/04/19 20:54 KNAK 192054Z AUTO 09013KT 10SM OVC037 14/05 A3010 RMK AO2 SLP194 T01440050 56010
KW29 - Stevensville, Maryland, USA
Distance from station: SSE 31mi, 50km
Updated: Sun, 19-Apr-2015 5:10pm EDT

 Wind from E
Wind: E 14 mph , 22 km/h, Gust: 22 mph , 35 km/h
Temperature: 57°F , 14°C
Dew Point: 34°F , 1°C
Humidity: 41%
Barometer: 30.11 inHg , 1019.6 hPa
Visibility: 10 miles , 16 km
2015/04/19 21:10 KW29 192110Z AUTO 08012G19KT 10SM 14/01 A3011 RMK AO1
 
KCGS - College Park, Maryland, USA
Distance from station: SW 38mi, 61km
Updated: Sun, 19-Apr-2015 5:10pm EDT
Overcast
Overcast
 Wind from E
Wind: E 13 mph , 20 km/h, Gust: 18 mph , 30 km/h
Temperature: 61°F , 16°C
Dew Point: 45°F , 7°C
Humidity: 55%
Barometer: 30.09 inHg , 1019 hPa
Clouds: Overcast
Visibility: 10 miles , 16 km
Cloud details: Overcast 3900 ft
2015/04/19 21:10 KCGS 192110Z AUTO 08011G16KT 10SM OVC039 16/07 A3009 RMK AO1
KGAI - Gaithersburg, Maryland, USA
Distance from station: WSW 40mi, 65km
Updated: Sun, 19-Apr-2015 5:15pm EDT
Mostly cloudy
Mostly cloudy
 Wind from E
Wind: E 9 mph , 15 km/h, Gust: 18 mph , 30 km/h
Temperature: 61°F , 16°C
Dew Point: 39°F , 4°C
Humidity: 45%
Barometer: 30.11 inHg , 1019.6 hPa
Clouds: Mostly cloudy
Visibility: 10 miles , 16 km
Cloud details: Mostly cloudy 3900 ft
2015/04/19 21:15 KGAI 192115Z AUTO 08008G16KT 040V110 10SM BKN039 16/04 A3011 RMK AO1
 
KTHV - York, Pennsylvania, USA
Distance from station: NNW 40mi, 65km
Updated: Sun, 19-Apr-2015 4:53pm EDT
Clear
Clear
 Wind from SSE
Wind: SSE 13 mph , 20 km/h
Temperature: 63°F , 17°C
Dew Point: 39°F , 4°C
Humidity: 42%
Barometer: 30.09 inHg , 1019 hPa
Clouds: Clear
Visibility: 10 miles , 16 km
2015/04/19 20:53 KTHV 192053Z AUTO 15011KT 10SM CLR 17/04 A3009 RMK AO2 SLP190 T01670039 55010
KFDK - Frederick, Maryland, USA
Distance from station: W 47mi, 75km
Updated: Sun, 19-Apr-2015 4:55pm EDT
Clear
Clear
 Wind from E
Wind: E 8 mph , 13 km/h, Gust: 16 mph , 26 km/h
Temperature: 63°F , 17°C
Dew Point: 39°F , 4°C
Humidity: 42%
Barometer: 30.10 inHg , 1019.3 hPa
Clouds: Clear
Visibility: 10 miles , 16 km
2015/04/19 20:55 KFDK 192055Z 10007G14KT 10SM SKC 17/04 A3010
 
KESN - Easton/Newnam, Maryland, USA
Distance from station: SSE 48mi, 78km
Updated: Sun, 19-Apr-2015 4:50pm EDT
Overcast
Overcast
 Wind from E
Wind: E 12 mph , 19 km/h, Gust: 21 mph , 33 km/h
Temperature: 61°F , 16°C
Dew Point: 45°F , 7°C
Humidity: 55%
Barometer: 30.15 inHg , 1021 hPa
Clouds: Overcast
Visibility: 10 miles , 16 km
Cloud details: Overcast 3200 ft
2015/04/19 20:50 KESN 192050Z 10010G18KT 10SM OVC032 16/07 A3015
KDCA - Washington/Natl, Washington D.c., USA
Distance from station: SW 49mi, 79km
Updated: Sun, 19-Apr-2015 4:52pm EDT
Overcast
Overcast
 Wind from E
Wind: E 15 mph , 24 km/h
Temperature: 64°F , 18°C
Dew Point: 48°F , 9°C
Humidity: 56%
Barometer: 30.08 inHg , 1018.6 hPa
Clouds: Overcast
Visibility: 10 miles , 16 km
Cloud details: Overcast 4000 ft
2015/04/19 20:52 KDCA 192052Z 10013KT 10SM OVC040 18/09 A3008 RMK AO2 SLP185 T01830089 58008
 
KLNS - Lancaster, Pennsylvania, USA
Distance from station: N 49mi, 79km
Updated: Sun, 19-Apr-2015 4:53pm EDT
Clear
Clear
 Wind from SE
Wind: SE 15 mph , 24 km/h, Gust: 23 mph , 37 km/h
Temperature: 61°F , 16°C
Dew Point: 39°F , 4°C
Humidity: 45%
Barometer: 30.10 inHg , 1019.3 hPa
Clouds: Clear
Visibility: 10 miles , 16 km
2015/04/19 20:53 KLNS 192053Z 14013G20KT 10SM CLR 16/04 A3010 RMK AO2 SLP192 T01610039 55012
KILG - Wilmington, Delaware, USA
Distance from station: ENE 50mi, 81km
Updated: Sun, 19-Apr-2015 4:51pm EDT
Clear
Clear
 Wind from ESE
Wind: ESE 14 mph , 22 km/h
Temperature: 57°F , 14°C
Dew Point: 34°F , 1°C
Humidity: 41%
Barometer: 30.15 inHg , 1021 hPa
Clouds: Clear
Visibility: 10 miles , 16 km
2015/04/19 20:51 KILG 192051Z AUTO 12012KT 10SM CLR 14/01 A3015 RMK AO2 SLP211 T01440011 55008